createdAt,value
2017-09-05T00:01:37.763Z,0
2017-09-05T00:11:37.745Z,0
2017-09-05T00:21:37.780Z,0
2017-09-05T00:31:37.730Z,0
2017-09-05T00:41:37.708Z,0
2017-09-05T00:51:37.771Z,0
2017-09-05T01:01:37.723Z,0
2017-09-05T01:11:37.744Z,0
2017-09-05T01:21:37.774Z,0
2017-09-05T01:31:37.714Z,0
2017-09-05T01:41:37.756Z,0
2017-09-05T01:51:37.723Z,0
2017-09-05T02:01:37.713Z,0
2017-09-05T02:11:37.803Z,0
2017-09-05T02:21:37.990Z,0
2017-09-05T02:31:37.666Z,0
2017-09-05T02:41:37.728Z,0
2017-09-05T02:51:37.670Z,0
2017-09-05T03:01:37.804Z,0
2017-09-05T03:11:37.709Z,0
2017-09-05T03:21:37.694Z,0
2017-09-05T03:31:37.780Z,0
2017-09-05T03:41:37.729Z,0
2017-09-05T03:51:37.809Z,0
2017-09-05T04:01:37.735Z,0
2017-09-05T04:11:37.716Z,0
2017-09-05T04:21:37.782Z,4
2017-09-05T04:31:37.752Z,12
2017-09-05T04:41:37.788Z,48
2017-09-05T04:51:37.748Z,128
2017-09-05T05:01:37.718Z,284
2017-09-05T05:11:37.792Z,424
2017-09-05T05:21:37.748Z,952
2017-09-05T05:31:37.709Z,1252
2017-09-05T05:41:37.792Z,2048
2017-09-05T05:51:37.745Z,3396
2017-09-05T06:01:37.797Z,4600
2017-09-05T06:11:37.715Z,3656
2017-09-05T06:21:37.733Z,4068
2017-09-05T06:31:37.750Z,3284
2017-09-05T06:41:37.730Z,5116
2017-09-05T06:51:37.810Z,6128
2017-09-05T07:01:37.733Z,6712
2017-09-05T07:11:37.732Z,9020
2017-09-05T07:21:37.778Z,8536
2017-09-05T07:31:37.742Z,9664
2017-09-05T07:41:37.699Z,9924
2017-09-05T07:51:37.778Z,12724
2017-09-05T08:01:37.740Z,15072
2017-09-05T08:11:37.806Z,15968
2017-09-05T08:21:37.758Z,39008
2017-09-05T08:31:37.719Z,15468
2017-09-05T08:41:37.894Z,13240
2017-09-05T08:51:37.764Z,12648
2017-09-05T09:01:37.783Z,20000
2017-09-05T09:11:37.748Z,13344
2017-09-05T09:21:37.855Z,16744
2017-09-05T09:31:37.818Z,14900
2017-09-05T09:41:37.726Z,12184
2017-09-05T09:51:37.740Z,12072
2017-09-05T10:01:37.782Z,16460
2017-09-05T10:11:37.692Z,7816
2017-09-05T10:21:37.775Z,7764
2017-09-05T10:31:37.719Z,10884
2017-09-05T10:41:37.717Z,12688
2017-09-05T10:51:37.720Z,13088
2017-09-05T11:01:37.747Z,8080
2017-09-05T11:11:37.734Z,7304
2017-09-05T11:21:37.764Z,7612
2017-09-05T11:31:37.739Z,9992
2017-09-05T11:41:37.763Z,10236
2017-09-05T11:51:37.718Z,14312
2017-09-05T12:01:37.746Z,13396
2017-09-05T12:11:37.734Z,6416
2017-09-05T12:21:37.745Z,4964
2017-09-05T12:31:38.227Z,6924
2017-09-05T12:41:37.747Z,10712
2017-09-05T12:51:38.415Z,11636
2017-09-05T13:01:37.772Z,12480
2017-09-05T13:11:37.773Z,10256
2017-09-05T13:21:37.755Z,7240
2017-09-05T13:31:37.805Z,5040
2017-09-05T13:41:37.828Z,9144
2017-09-05T13:51:38.095Z,10184
2017-09-05T14:01:37.855Z,6640
2017-09-05T14:11:37.860Z,8340
2017-09-05T14:21:37.912Z,7776
2017-09-05T14:31:37.878Z,4888
2017-09-05T14:41:37.841Z,4164
2017-09-05T14:51:37.855Z,11200
2017-09-05T15:01:37.773Z,5452
2017-09-05T15:11:37.916Z,7400
2017-09-05T15:21:37.864Z,6424
2017-09-05T15:31:37.976Z,4404
2017-09-05T15:41:37.871Z,3528
2017-09-05T15:51:37.944Z,6600
2017-09-05T16:01:37.950Z,3804
2017-09-05T16:11:37.867Z,3564
2017-09-05T16:21:37.947Z,3388
2017-09-05T16:31:37.953Z,2732
2017-09-05T16:41:37.828Z,3072
2017-09-05T16:51:38.030Z,2212
2017-09-05T17:01:37.852Z,1148
2017-09-05T17:11:37.904Z,560
2017-09-05T17:21:37.891Z,280
2017-09-05T17:31:37.837Z,104
2017-09-05T17:41:37.908Z,96
2017-09-05T17:51:37.905Z,52
2017-09-05T18:01:37.947Z,28
2017-09-05T18:11:37.908Z,16
2017-09-05T18:21:37.985Z,12
2017-09-05T18:31:38.109Z,8
2017-09-05T18:41:38.999Z,0
2017-09-05T18:51:38.727Z,0
2017-09-05T19:01:40.874Z,0
2017-09-05T19:11:38.870Z,0
2017-09-05T19:21:37.962Z,0
2017-09-05T19:31:37.919Z,0
2017-09-05T19:41:37.876Z,0
2017-09-05T19:51:47.595Z,0
2017-09-05T20:01:48.614Z,0
2017-09-05T20:11:39.745Z,0
2017-09-05T20:21:46.084Z,0
2017-09-05T20:31:48.557Z,0
2017-09-05T20:41:47.484Z,0
2017-09-05T20:51:37.885Z,0
2017-09-05T21:01:37.983Z,0
2017-09-05T21:11:37.917Z,0
2017-09-05T21:21:37.906Z,0
2017-09-05T21:31:37.898Z,0
2017-09-05T21:41:37.885Z,0
2017-09-05T21:51:37.960Z,0
2017-09-05T22:01:37.887Z,0
2017-09-05T22:11:37.898Z,0
2017-09-05T22:21:37.936Z,0
2017-09-05T22:31:37.866Z,0
2017-09-05T22:41:37.951Z,0
2017-09-05T22:51:37.938Z,0
2017-09-05T23:01:37.860Z,0
2017-09-05T23:11:37.917Z,0
2017-09-05T23:21:37.895Z,0
2017-09-05T23:31:37.924Z,0
2017-09-05T23:41:37.901Z,0
2017-09-05T23:51:37.888Z,0
